Time;durP1;ratioP1;P1;durP2;ratioP2;P2;SDS_P1;SDS_P2;PMS_P1;PMS_P2;Temp;Humidity;BMP_temperature;BMP_pressure;BME280_temperature;BME280_humidity;BME280_pressure;Samples;Min_cycle;Max_cycle;Signal;HPM_P1;HPM_P2
2023/05/11 00:01:19;;;;;;;15.30;13.50;;;;;;;;;;4387739;32;319550;-83
2023/05/11 00:03:46;;;;;;;27.30;15.33;;;;;;;;;;4395265;32;318413;-82
2023/05/11 00:06:14;;;;;;;25.20;15.43;;;;;;;;;;4396578;32;322628;-84
2023/05/11 00:08:41;;;;;;;17.57;14.60;;;;;;;;;;4384388;32;416581;-83
2023/05/11 00:11:09;;;;;;;17.20;14.83;;;;;;;;;;4397973;32;319434;-82
2023/05/11 00:13:36;;;;;;;17.50;14.63;;;;;;;;;;4386666;32;318711;-81
2023/05/11 00:16:03;;;;;;;25.97;14.53;;;;;;;;;;4396821;32;319797;-83
2023/05/11 00:18:30;;;;;;;24.50;15.33;;;;;;;;;;4384858;32;318760;-83
2023/05/11 00:20:57;;;;;;;20.40;14.70;;;;;;;;;;4396754;32;319688;-83
2023/05/11 00:23:25;;;;;;;21.47;14.87;;;;;;;;;;4386688;32;318789;-85
2023/05/11 00:25:52;;;;;;;18.40;14.27;;;;;;;;;;4396697;32;319359;-82
2023/05/11 00:28:19;;;;;;;24.93;15.53;;;;;;;;;;4387059;32;318678;-83
2023/05/11 00:30:46;;;;;;;22.80;15.03;;;;;;;;;;4397582;32;319435;-85
2023/05/11 00:33:12;;;;;;;23.27;15.37;;;;;;;;;;4391289;32;320281;-82
2023/05/11 00:35:39;;;;;;;23.43;16.87;;;;;;;;;;4367958;32;420370;-83
2023/05/11 00:38:06;;;;;;;22.93;16.27;;;;;;;;;;4381376;32;318703;-86
2023/05/11 00:40:34;;;;;;;23.20;17.30;;;;;;;;;;4381936;32;319707;-84
2023/05/11 00:43:01;;;;;;;24.83;17.10;;;;;;;;;;4412055;32;319513;-87
2023/05/11 00:45:29;;;;;;;26.27;17.00;;;;;;;;;;4402922;32;319263;-83
2023/05/11 00:47:56;;;;;;;23.30;17.07;;;;;;;;;;4411980;32;348573;-84
2023/05/11 00:50:24;;;;;;;25.00;16.67;;;;;;;;;;4402106;32;318751;-84
2023/05/11 00:52:52;;;;;;;24.03;16.57;;;;;;;;;;4412962;32;319412;-83
2023/05/11 00:55:20;;;;;;;19.23;15.67;;;;;;;;;;4387897;32;356143;-84
2023/05/11 00:57:49;;;;;;;21.47;15.60;;;;;;;;;;4412012;32;319132;-83
2023/05/11 01:00:17;;;;;;;18.47;15.73;;;;;;;;;;4387956;32;341165;-84
2023/05/11 01:02:44;;;;;;;26.43;14.87;;;;;;;;;;4389207;32;319390;-85
2023/05/11 01:05:11;;;;;;;19.47;15.33;;;;;;;;;;4380896;32;324590;-83
2023/05/11 01:07:48;;;;;;;25.20;15.13;;;;;;;;;;4374543;32;420022;-82
2023/05/11 01:10:21;;;;;;;18.13;14.47;;;;;;;;;;4385341;32;325356;-86
2023/05/11 01:12:58;;;;;;;24.83;17.17;;;;;;;;;;4397612;32;318764;-82
2023/05/11 01:15:35;;;;;;;25.47;15.43;;;;;;;;;;4386387;32;319458;-82
2023/05/11 01:18:11;;;;;;;27.27;16.47;;;;;;;;;;4379018;32;348923;-86
2023/05/11 01:20:38;;;;;;;23.30;14.77;;;;;;;;;;4377730;32;318950;-83
2023/05/11 01:23:44;;;;;;;25.27;14.10;;;;;;;;;;4395164;32;346864;-83
2023/05/11 01:26:24;;;;;;;18.10;13.50;;;;;;;;;;4393433;32;420441;-86
2023/05/11 01:29:21;;;;;;;24.37;14.53;;;;;;;;;;4366779;32;421217;-87
2023/05/11 01:31:52;;;;;;;24.53;13.57;;;;;;;;;;4360211;32;421142;-83
2023/05/11 01:34:23;;;;;;;19.93;12.30;;;;;;;;;;4374240;32;320394;-81
2023/05/11 01:36:54;;;;;;;22.17;12.37;;;;;;;;;;4386579;32;319355;-81
2023/05/11 01:39:26;;;;;;;17.60;12.83;;;;;;;;;;4387204;32;319384;-81
2023/05/11 01:41:55;;;;;;;16.90;12.77;;;;;;;;;;4395404;32;345257;-81
2023/05/11 01:44:25;;;;;;;17.93;11.93;;;;;;;;;;4387226;32;319312;-81
2023/05/11 01:46:56;;;;;;;19.57;12.47;;;;;;;;;;4396685;32;319103;-81
2023/05/11 01:49:23;;;;;;;13.33;10.37;;;;;;;;;;4387183;32;319528;-81
2023/05/11 01:51:51;;;;;;;25.50;11.13;;;;;;;;;;4397088;32;318942;-81
2023/05/11 01:54:20;;;;;;;17.67;11.30;;;;;;;;;;4386002;32;319483;-81
2023/05/11 01:56:49;;;;;;;13.00;10.20;;;;;;;;;;4396094;32;319365;-81
2023/05/11 01:59:17;;;;;;;12.27;10.97;;;;;;;;;;4385418;32;318945;-82
2023/05/11 02:01:45;;;;;;;17.20;10.17;;;;;;;;;;4394908;32;347177;-81
2023/05/11 02:04:17;;;;;;;17.43;10.30;;;;;;;;;;4398942;32;319354;-86
2023/05/11 02:06:44;;;;;;;14.20;10.53;;;;;;;;;;4387156;32;419821;-86
2023/05/11 02:09:13;;;;;;;14.63;9.83;;;;;;;;;;4398889;32;318679;-82
2023/05/11 02:11:42;;;;;;;11.30;9.53;;;;;;;;;;4364753;32;416090;-85
2023/05/11 02:14:11;;;;;;;13.10;10.87;;;;;;;;;;4399443;32;317708;-85
2023/05/11 02:16:39;;;;;;;16.23;11.00;;;;;;;;;;4389338;32;319297;-82
2023/05/11 02:19:07;;;;;;;13.17;9.53;;;;;;;;;;4396274;32;319104;-82
2023/05/11 02:21:38;;;;;;;13.53;9.00;;;;;;;;;;4389176;32;318495;-83
2023/05/11 02:24:07;;;;;;;10.63;9.40;;;;;;;;;;4399512;32;318129;-88
2023/05/11 02:26:34;;;;;;;19.83;10.53;;;;;;;;;;4389533;32;318167;-85
2023/05/11 02:29:01;;;;;;;13.83;8.97;;;;;;;;;;4385601;32;318612;-81
2023/05/11 02:31:29;;;;;;;13.80;9.17;;;;;;;;;;4375268;32;317743;-81
2023/05/11 02:34:04;;;;;;;10.70;9.07;;;;;;;;;;4407751;32;352224;-82
2023/05/11 02:36:33;;;;;;;10.70;7.90;;;;;;;;;;4403539;32;318485;-81
2023/05/11 02:39:06;;;;;;;11.20;7.60;;;;;;;;;;4393071;32;317447;-82
2023/05/11 02:41:36;;;;;;;10.10;8.90;;;;;;;;;;4388994;32;318274;-81
2023/05/11 02:44:08;;;;;;;8.20;7.40;;;;;;;;;;4414454;32;317632;-81
2023/05/11 02:46:38;;;;;;;9.23;8.33;;;;;;;;;;4403843;32;317086;-81
2023/05/11 02:49:09;;;;;;;10.97;8.43;;;;;;;;;;4414475;32;317961;-83
2023/05/11 02:51:38;;;;;;;10.23;7.93;;;;;;;;;;4403236;32;317751;-83
2023/05/11 02:54:10;;;;;;;17.53;7.80;;;;;;;;;;4399275;32;317805;-80
2023/05/11 02:56:38;;;;;;;12.27;8.43;;;;;;;;;;4402144;32;317615;-80
2023/05/11 02:59:05;;;;;;;9.40;8.30;;;;;;;;;;4412750;32;317359;-80
2023/05/11 03:01:33;;;;;;;17.13;8.67;;;;;;;;;;4404210;32;316571;-82
2023/05/11 03:04:00;;;;;;;10.43;8.40;;;;;;;;;;4414190;32;317548;-82
2023/05/11 03:06:26;;;;;;;12.90;7.77;;;;;;;;;;4403240;32;318231;-82
2023/05/11 03:08:53;;;;;;;7.77;6.80;;;;;;;;;;4414346;32;317689;-82
2023/05/11 03:11:22;;;;;;;9.40;7.13;;;;;;;;;;4393973;32;317155;-82
2023/05/11 03:13:50;;;;;;;8.07;7.23;;;;;;;;;;4398638;32;317200;-81
2023/05/11 03:16:17;;;;;;;9.07;7.70;;;;;;;;;;4387748;32;317265;-82
2023/05/11 03:18:44;;;;;;;12.37;7.37;;;;;;;;;;4388405;32;316643;-81
2023/05/11 03:21:12;;;;;;;7.57;6.87;;;;;;;;;;4398498;32;318442;-82
2023/05/11 03:23:41;;;;;;;9.87;7.67;;;;;;;;;;4381809;32;417865;-81
2023/05/11 03:26:09;;;;;;;7.93;7.13;;;;;;;;;;4398881;32;317484;-81
2023/05/11 03:28:38;;;;;;;12.90;8.13;;;;;;;;;;4387565;32;317411;-81
2023/05/11 03:31:06;;;;;;;8.17;7.37;;;;;;;;;;4398462;32;324159;-81
2023/05/11 03:33:33;;;;;;;10.60;7.23;;;;;;;;;;4380328;32;321366;-82
2023/05/11 03:36:02;;;;;;;7.90;7.00;;;;;;;;;;4385218;32;317523;-82
2023/05/11 03:38:30;;;;;;;9.27;7.27;;;;;;;;;;4373352;32;316481;-82
2023/05/11 03:40:58;;;;;;;12.67;7.80;;;;;;;;;;4384369;32;317278;-81
2023/05/11 03:43:28;;;;;;;11.43;7.57;;;;;;;;;;4376646;32;317815;-82
2023/05/11 03:45:57;;;;;;;11.00;7.67;;;;;;;;;;4399047;32;317736;-81
2023/05/11 03:48:24;;;;;;;10.93;7.63;;;;;;;;;;4393738;32;316845;-81
2023/05/11 03:50:51;;;;;;;9.40;7.03;;;;;;;;;;4396287;32;316402;-82
2023/05/11 03:53:20;;;;;;;14.83;7.13;;;;;;;;;;4385656;32;317220;-82
2023/05/11 03:55:47;;;;;;;16.27;6.93;;;;;;;;;;4391379;32;317940;-81
2023/05/11 03:58:14;;;;;;;13.97;7.47;;;;;;;;;;4378592;32;317753;-81
2023/05/11 04:00:43;;;;;;;13.90;8.33;;;;;;;;;;4381368;32;328651;-80
2023/05/11 04:03:11;;;;;;;9.17;7.87;;;;;;;;;;4381567;32;318429;-82
2023/05/11 04:05:38;;;;;;;8.80;7.77;;;;;;;;;;4373096;32;317212;-81
2023/05/11 04:08:05;;;;;;;10.37;7.60;;;;;;;;;;4381810;32;317197;-81
2023/05/11 04:10:32;;;;;;;9.60;7.90;;;;;;;;;;4378665;32;318254;-81
2023/05/11 04:12:59;;;;;;;16.30;8.67;;;;;;;;;;4397320;32;317315;-81
2023/05/11 04:15:25;;;;;;;14.00;8.00;;;;;;;;;;4375316;32;318281;-81
2023/05/11 04:17:56;;;;;;;9.10;8.17;;;;;;;;;;4394954;32;318423;-81
2023/05/11 04:20:24;;;;;;;13.20;8.60;;;;;;;;;;4386478;32;324751;-81
2023/05/11 04:22:51;;;;;;;18.03;8.53;;;;;;;;;;4396905;32;318023;-81
2023/05/11 04:25:18;;;;;;;16.83;8.87;;;;;;;;;;4386427;32;318373;-81
2023/05/11 04:27:45;;;;;;;17.87;9.27;;;;;;;;;;4397730;32;317823;-82
2023/05/11 04:30:13;;;;;;;13.50;9.57;;;;;;;;;;4387825;32;317911;-83
2023/05/11 04:32:41;;;;;;;11.17;7.97;;;;;;;;;;4396283;32;318029;-82
2023/05/11 04:35:08;;;;;;;13.10;10.17;;;;;;;;;;4387972;32;318446;-82
2023/05/11 04:37:36;;;;;;;20.37;10.27;;;;;;;;;;4396308;32;319383;-83
2023/05/11 04:40:06;;;;;;;18.67;10.47;;;;;;;;;;4396582;32;318731;-81
2023/05/11 04:42:33;;;;;;;14.30;10.10;;;;;;;;;;4369941;32;418471;-82
2023/05/11 04:44:59;;;;;;;19.53;9.40;;;;;;;;;;4384462;32;319204;-81
2023/05/11 04:47:26;;;;;;;21.33;12.27;;;;;;;;;;4385506;32;318657;-81
2023/05/11 04:49:54;;;;;;;20.97;11.30;;;;;;;;;;4395611;32;358374;-82
2023/05/11 04:52:21;;;;;;;36.60;12.60;;;;;;;;;;4378411;32;318955;-82
2023/05/11 04:54:49;;;;;;;26.80;13.27;;;;;;;;;;4396896;32;318498;-82
2023/05/11 04:57:18;;;;;;;29.80;12.10;;;;;;;;;;4387592;32;318764;-81
2023/05/11 04:59:45;;;;;;;22.47;12.37;;;;;;;;;;4396189;32;318891;-81
2023/05/11 05:02:11;;;;;;;28.47;10.27;;;;;;;;;;4386974;32;319245;-80
2023/05/11 05:04:38;;;;;;;29.63;11.20;;;;;;;;;;4395930;32;319058;-80
2023/05/11 05:07:06;;;;;;;22.40;12.20;;;;;;;;;;4381511;32;319464;-82
2023/05/11 05:09:33;;;;;;;27.33;11.90;;;;;;;;;;4396692;32;318742;-80
2023/05/11 05:12:01;;;;;;;23.43;11.33;;;;;;;;;;4397033;32;319484;-81
2023/05/11 05:14:27;;;;;;;25.23;13.47;;;;;;;;;;4378520;32;319822;-83
2023/05/11 05:16:55;;;;;;;32.67;12.27;;;;;;;;;;4395622;32;319634;-82
2023/05/11 05:19:22;;;;;;;33.43;12.27;;;;;;;;;;4372094;32;318976;-86
2023/05/11 05:21:49;;;;;;;39.23;13.63;;;;;;;;;;4366898;32;319889;-86
2023/05/11 05:24:16;;;;;;;23.00;12.87;;;;;;;;;;4369170;32;352221;-83
2023/05/11 05:26:43;;;;;;;17.53;12.00;;;;;;;;;;4381859;32;318812;-84
2023/05/11 05:29:11;;;;;;;30.80;12.57;;;;;;;;;;4370572;32;319133;-82
2023/05/11 05:31:38;;;;;;;20.57;11.27;;;;;;;;;;4380478;32;319498;-82
2023/05/11 05:34:05;;;;;;;19.50;11.70;;;;;;;;;;4391164;32;319611;-84
2023/05/11 05:36:32;;;;;;;17.23;10.43;;;;;;;;;;4384225;32;418286;-86
2023/05/11 05:39:00;;;;;;;24.67;12.37;;;;;;;;;;4398860;32;319802;-80
2023/05/11 05:41:26;;;;;;;20.73;10.57;;;;;;;;;;4389416;32;319370;-80
2023/05/11 05:43:55;;;;;;;24.20;13.27;;;;;;;;;;4396475;32;318916;-80
2023/05/11 05:46:23;;;;;;;20.27;11.53;;;;;;;;;;4387007;32;318832;-80
2023/05/11 05:48:50;;;;;;;20.03;11.10;;;;;;;;;;4398094;32;319314;-79
2023/05/11 05:51:17;;;;;;;20.23;11.83;;;;;;;;;;4389130;32;318677;-81
2023/05/11 05:53:43;;;;;;;16.73;11.70;;;;;;;;;;4396047;32;318359;-80
2023/05/11 05:56:10;;;;;;;22.07;12.93;;;;;;;;;;4388462;32;319320;-81
2023/05/11 05:58:37;;;;;;;16.30;11.10;;;;;;;;;;4394618;32;354537;-86
2023/05/11 06:01:04;;;;;;;15.10;10.10;;;;;;;;;;4377860;32;319087;-81
2023/05/11 06:03:32;;;;;;;27.27;11.60;;;;;;;;;;4374335;32;319531;-81
2023/05/11 06:06:00;;;;;;;22.80;12.27;;;;;;;;;;4384188;32;319506;-85
2023/05/11 06:08:27;;;;;;;26.57;13.93;;;;;;;;;;4373181;32;318940;-85
2023/05/11 06:10:55;;;;;;;15.27;10.07;;;;;;;;;;4383187;32;319206;-84
2023/05/11 06:13:21;;;;;;;27.50;12.97;;;;;;;;;;4374447;32;318793;-85
2023/05/11 06:15:48;;;;;;;15.10;11.03;;;;;;;;;;4382879;32;318978;-85
2023/05/11 06:18:15;;;;;;;16.10;10.53;;;;;;;;;;4367158;32;319429;-85
2023/05/11 06:20:43;;;;;;;25.90;11.03;;;;;;;;;;4391123;32;318877;-84
2023/05/11 06:23:12;;;;;;;17.40;9.87;;;;;;;;;;4386692;32;398277;-82
2023/05/11 06:25:39;;;;;;;15.57;9.90;;;;;;;;;;4397345;32;317727;-82
2023/05/11 06:28:06;;;;;;;13.77;8.83;;;;;;;;;;4388973;32;327033;-81
2023/05/11 06:30:34;;;;;;;22.20;10.23;;;;;;;;;;4397660;32;318328;-82
2023/05/11 06:33:01;;;;;;;10.13;8.53;;;;;;;;;;4399017;32;319323;-85
2023/05/11 06:35:33;;;;;;;12.63;8.50;;;;;;;;;;4382048;32;318173;-83
2023/05/11 06:38:01;;;;;;;13.47;8.77;;;;;;;;;;4400335;32;318307;-82
2023/05/11 06:40:28;;;;;;;16.33;10.00;;;;;;;;;;4391867;32;317999;-85
2023/05/11 06:42:54;;;;;;;20.40;9.80;;;;;;;;;;4392077;32;318833;-83
2023/05/11 06:45:21;;;;;;;29.47;9.77;;;;;;;;;;4383709;32;318158;-80
2023/05/11 06:47:50;;;;;;;17.63;8.77;;;;;;;;;;4398316;32;317813;-80
2023/05/11 06:50:17;;;;;;;17.93;9.27;;;;;;;;;;4388823;32;317657;-81
2023/05/11 06:52:44;;;;;;;22.73;10.83;;;;;;;;;;4397408;32;318279;-79
2023/05/11 06:55:14;;;;;;;23.63;10.13;;;;;;;;;;4387748;32;319420;-83
2023/05/11 06:57:40;;;;;;;13.47;9.37;;;;;;;;;;4400235;32;319112;-82
2023/05/11 07:00:09;;;;;;;20.30;10.60;;;;;;;;;;4388707;32;318539;-83
2023/05/11 07:02:35;;;;;;;20.50;9.60;;;;;;;;;;4398513;32;318595;-82
2023/05/11 07:05:03;;;;;;;30.03;10.87;;;;;;;;;;4399918;32;318091;-81
2023/05/11 07:07:30;;;;;;;14.07;9.50;;;;;;;;;;4391056;32;319445;-81
2023/05/11 07:09:57;;;;;;;19.83;10.10;;;;;;;;;;4397254;32;317492;-82
2023/05/11 07:12:27;;;;;;;19.60;11.93;;;;;;;;;;4372432;32;319258;-82
2023/05/11 07:14:54;;;;;;;15.30;9.03;;;;;;;;;;4383208;32;318669;-83
2023/05/11 07:17:21;;;;;;;16.67;9.80;;;;;;;;;;4363540;32;317790;-83
2023/05/11 07:19:50;;;;;;;21.00;10.63;;;;;;;;;;4382313;32;317568;-82
2023/05/11 07:22:17;;;;;;;19.63;9.80;;;;;;;;;;4372001;32;319494;-83
2023/05/11 07:24:43;;;;;;;17.67;8.93;;;;;;;;;;4369016;32;318332;-81
2023/05/11 07:27:10;;;;;;;16.47;9.73;;;;;;;;;;4371603;32;318558;-82
2023/05/11 07:29:44;;;;;;;13.33;8.53;;;;;;;;;;4381582;32;317829;-83
2023/05/11 07:32:10;;;;;;;14.33;9.23;;;;;;;;;;4357282;32;317693;-83
2023/05/11 07:34:38;;;;;;;17.67;9.07;;;;;;;;;;4380058;32;318406;-84
2023/05/11 07:37:04;;;;;;;17.10;9.60;;;;;;;;;;4372996;32;318566;-83
2023/05/11 07:39:31;;;;;;;19.83;9.10;;;;;;;;;;4366948;32;420625;-81
2023/05/11 07:41:58;;;;;;;15.37;8.90;;;;;;;;;;4381319;32;318476;-82
2023/05/11 07:44:25;;;;;;;18.03;9.20;;;;;;;;;;4371919;32;318436;-82
2023/05/11 07:46:53;;;;;;;17.40;8.63;;;;;;;;;;4382649;32;317719;-82
2023/05/11 07:49:20;;;;;;;12.63;8.17;;;;;;;;;;4372315;32;318330;-84
2023/05/11 07:51:47;;;;;;;10.23;8.27;;;;;;;;;;4383194;32;318708;-80
2023/05/11 07:54:14;;;;;;;16.30;8.83;;;;;;;;;;4375830;32;317638;-83
2023/05/11 07:56:41;;;;;;;19.63;9.10;;;;;;;;;;4398424;32;317331;-80
2023/05/11 07:59:13;;;;;;;12.77;7.93;;;;;;;;;;4384217;32;316166;-82
2023/05/11 08:01:40;;;;;;;15.43;9.47;;;;;;;;;;4410297;32;317814;-85
2023/05/11 08:04:08;;;;;;;12.37;8.10;;;;;;;;;;4399272;32;317719;-84
2023/05/11 08:06:35;;;;;;;16.37;8.83;;;;;;;;;;4402699;32;318444;-82
2023/05/11 08:09:01;;;;;;;10.60;7.93;;;;;;;;;;4397100;32;317587;-79
2023/05/11 08:11:28;;;;;;;18.10;9.20;;;;;;;;;;4385333;32;358581;-79
2023/05/11 08:13:55;;;;;;;17.60;8.20;;;;;;;;;;4407114;32;317580;-83
2023/05/11 08:16:22;;;;;;;12.93;7.83;;;;;;;;;;4402173;32;317977;-83
2023/05/11 08:18:48;;;;;;;13.77;7.03;;;;;;;;;;4403318;32;317513;-86
2023/05/11 08:21:17;;;;;;;18.07;7.17;;;;;;;;;;4385784;32;317466;-84
2023/05/11 08:23:44;;;;;;;24.37;6.90;;;;;;;;;;4391360;32;318344;-82
2023/05/11 08:26:11;;;;;;;10.30;7.33;;;;;;;;;;4388682;32;318349;-82
2023/05/11 08:28:37;;;;;;;19.13;8.70;;;;;;;;;;4396446;32;318233;-86
2023/05/11 08:31:05;;;;;;;11.33;7.13;;;;;;;;;;4395052;32;351972;-83
2023/05/11 08:33:34;;;;;;;17.23;7.70;;;;;;;;;;4383700;32;417530;-82
2023/05/11 08:36:02;;;;;;;13.87;8.03;;;;;;;;;;4396262;32;317564;-85
2023/05/11 08:38:30;;;;;;;18.17;8.63;;;;;;;;;;4386102;32;318497;-84
2023/05/11 08:40:57;;;;;;;16.70;9.03;;;;;;;;;;4397520;32;317380;-84
2023/05/11 08:43:26;;;;;;;14.23;7.93;;;;;;;;;;4387469;32;318258;-84
2023/05/11 08:45:56;;;;;;;16.67;7.30;;;;;;;;;;4395959;32;317717;-83
2023/05/11 08:48:24;;;;;;;13.20;7.57;;;;;;;;;;4386669;32;332803;-83
2023/05/11 08:50:51;;;;;;;10.33;7.07;;;;;;;;;;4398525;32;318100;-84
2023/05/11 08:53:18;;;;;;;11.63;7.50;;;;;;;;;;4388334;32;318081;-83
2023/05/11 08:55:47;;;;;;;13.07;7.40;;;;;;;;;;4383958;32;318120;-85
2023/05/11 08:58:18;;;;;;;8.33;7.13;;;;;;;;;;4382754;32;318712;-81
2023/05/11 09:00:46;;;;;;;12.87;8.00;;;;;;;;;;4354356;32;316813;-84
2023/05/11 09:03:14;;;;;;;20.07;6.77;;;;;;;;;;4363930;32;317618;-85
2023/05/11 09:05:43;;;;;;;9.87;7.50;;;;;;;;;;4380488;32;317880;-80
2023/05/11 09:08:12;;;;;;;14.90;7.20;;;;;;;;;;4384668;32;317255;-87
2023/05/11 09:10:41;;;;;;;7.50;6.40;;;;;;;;;;4394877;32;318465;-81
2023/05/11 09:13:09;;;;;;;10.07;6.60;;;;;;;;;;4387806;32;317381;-83
2023/05/11 09:15:36;;;;;;;12.50;6.43;;;;;;;;;;4399982;32;318044;-82
2023/05/11 09:18:04;;;;;;;9.57;6.93;;;;;;;;;;4400561;32;318019;-80
2023/05/11 09:20:32;;;;;;;11.80;6.43;;;;;;;;;;4387479;32;416435;-85
2023/05/11 09:23:00;;;;;;;9.37;6.30;;;;;;;;;;4398951;32;336261;-84
2023/05/11 09:25:31;;;;;;;8.57;6.77;;;;;;;;;;4388854;32;317484;-87
2023/05/11 09:27:59;;;;;;;9.80;6.97;;;;;;;;;;4399387;32;317228;-79
2023/05/11 09:30:27;;;;;;;11.77;7.03;;;;;;;;;;4388732;32;317497;-91
2023/05/11 09:32:55;;;;;;;8.47;6.63;;;;;;;;;;4399735;32;318467;-86
2023/05/11 09:35:23;;;;;;;10.53;7.20;;;;;;;;;;4390105;32;317089;-79
2023/05/11 09:38:03;;;;;;;13.47;7.50;;;;;;;;;;4399764;32;320887;-82
2023/05/11 09:40:30;;;;;;;8.67;7.17;;;;;;;;;;4389097;32;317681;-80
2023/05/11 09:42:57;;;;;;;10.70;6.77;;;;;;;;;;4398271;32;339422;-80
2023/05/11 09:45:44;;;;;;;15.73;9.50;;;;;;;;;;4388406;32;358628;-81
2023/05/11 09:48:28;;;;;;;7.80;6.80;;;;;;;;;;4388649;32;318428;-80
2023/05/11 09:51:10;;;;;;;17.27;7.30;;;;;;;;;;4399152;32;317081;-80
2023/05/11 09:53:45;;;;;;;10.83;6.50;;;;;;;;;;4386236;32;418275;-80
2023/05/11 09:56:12;;;;;;;10.60;8.10;;;;;;;;;;4388023;32;318231;-80
2023/05/11 09:58:48;;;;;;;15.43;7.20;;;;;;;;;;4397985;32;318175;-79
2023/05/11 10:01:17;;;;;;;13.30;7.03;;;;;;;;;;4380345;32;317952;-80
2023/05/11 10:03:48;;;;;;;10.93;6.93;;;;;;;;;;4398780;32;318718;-80
2023/05/11 10:06:15;;;;;;;10.47;7.13;;;;;;;;;;4385742;32;343998;-82
2023/05/11 10:08:42;;;;;;;12.77;7.73;;;;;;;;;;4406868;32;318208;-80
2023/05/11 10:11:09;;;;;;;7.37;6.53;;;;;;;;;;4395229;32;328308;-80
2023/05/11 10:13:37;;;;;;;11.60;6.75;;;;;;;;;;4399155;32;316802;-81
2023/05/11 10:16:05;;;;;;;7.60;6.73;;;;;;;;;;4398995;32;318155;-80
2023/05/11 10:18:34;;;;;;;10.17;8.60;;;;;;;;;;4376932;32;416658;-81
2023/05/11 10:21:01;;;;;;;12.50;8.33;;;;;;;;;;4383476;32;317646;-81
2023/05/11 10:23:32;;;;;;;8.37;7.07;;;;;;;;;;4374368;32;342452;-82
2023/05/11 10:26:00;;;;;;;11.10;8.37;;;;;;;;;;4395019;32;315882;-81
2023/05/11 10:28:27;;;;;;;13.73;9.10;;;;;;;;;;4395059;32;317611;-81
2023/05/11 10:30:55;;;;;;;16.37;8.97;;;;;;;;;;4399150;32;318257;-81
2023/05/11 10:33:22;;;;;;;13.97;9.17;;;;;;;;;;4387709;32;318070;-81
2023/05/11 10:35:52;;;;;;;10.93;9.07;;;;;;;;;;4397355;32;318624;-80
2023/05/11 10:38:20;;;;;;;14.77;9.47;;;;;;;;;;4388135;32;318230;-80
2023/05/11 10:40:52;;;;;;;14.83;9.27;;;;;;;;;;4399084;32;317696;-81
2023/05/11 10:43:55;;;;;;;33.73;22.23;;;;;;;;;;4388236;32;318614;-79
2023/05/11 10:46:38;;;;;;;37.87;18.20;;;;;;;;;;4373190;32;319135;-83
2023/05/11 10:49:36;;;;;;;12.87;10.97;;;;;;;;;;4390955;32;318822;-84
2023/05/11 10:52:31;;;;;;;12.10;10.00;;;;;;;;;;4394591;32;419246;-84
2023/05/11 10:55:13;;;;;;;21.30;9.93;;;;;;;;;;4384248;32;419987;-84
2023/05/11 10:57:55;;;;;;;15.90;10.47;;;;;;;;;;4359577;32;418305;-84
2023/05/11 11:00:56;;;;;;;16.27;10.70;;;;;;;;;;4373680;32;319751;-84
2023/05/11 11:03:23;;;;;;;15.47;10.87;;;;;;;;;;4358657;32;318879;-84
2023/05/11 11:05:50;;;;;;;21.07;12.67;;;;;;;;;;4383045;32;318828;-84
2023/05/11 11:08:20;;;;;;;22.27;11.57;;;;;;;;;;4372627;32;319308;-84
2023/05/11 11:10:50;;;;;;;22.50;11.77;;;;;;;;;;4389172;32;319168;-84
2023/05/11 11:13:18;;;;;;;19.50;11.77;;;;;;;;;;4387334;32;318532;-84
2023/05/11 11:16:10;;;;;;;21.23;10.80;;;;;;;;;;4398548;32;318790;-84
2023/05/11 11:18:37;;;;;;;13.53;11.80;;;;;;;;;;4375674;32;421189;-83
2023/05/11 11:21:06;;;;;;;21.70;10.37;;;;;;;;;;4383631;32;319002;-83
2023/05/11 11:23:44;;;;;;;23.77;11.30;;;;;;;;;;4372280;32;418558;-84
2023/05/11 11:26:14;;;;;;;21.67;10.93;;;;;;;;;;4387511;32;319718;-84
2023/05/11 11:29:09;;;;;;;25.17;12.00;;;;;;;;;;4396472;32;342111;-84
2023/05/11 11:31:36;;;;;;;20.30;11.47;;;;;;;;;;4384118;32;420317;-83
2023/05/11 11:34:35;;;;;;;20.77;11.17;;;;;;;;;;4379833;32;318608;-84
2023/05/11 11:37:07;;;;;;;20.27;11.83;;;;;;;;;;4369642;32;419231;-84
2023/05/11 11:39:59;;;;;;;18.50;12.20;;;;;;;;;;4385182;32;391847;-83
2023/05/11 11:42:36;;;;;;;14.60;9.23;;;;;;;;;;4387509;32;319108;-84
2023/05/11 11:45:32;;;;;;;15.05;10.90;;;;;;;;;;4396892;32;317825;-84
2023/05/11 11:48:15;;;;;;;20.53;11.13;;;;;;;;;;4381819;32;420917;-84
2023/05/11 11:50:44;;;;;;;19.83;11.25;;;;;;;;;;4389413;32;419584;-83
2023/05/11 11:53:13;;;;;;;13.00;9.43;;;;;;;;;;4388652;32;319293;-85
2023/05/11 11:55:49;;;;;;;23.47;11.50;;;;;;;;;;4397235;32;318159;-83
2023/05/11 11:58:54;;;;;;;11.23;9.70;;;;;;;;;;4386571;32;321245;-85
2023/05/11 12:01:24;;;;;;;23.50;10.30;;;;;;;;;;4408819;32;318602;-84
2023/05/11 12:04:09;;;;;;;20.57;9.97;;;;;;;;;;4414680;32;319414;-84
2023/05/11 12:06:37;;;;;;;19.63;10.80;;;;;;;;;;4405988;32;418996;-86
2023/05/11 12:09:05;;;;;;;20.87;10.50;;;;;;;;;;4423282;32;318547;-85
2023/05/11 12:11:34;;;;;;;13.53;10.87;;;;;;;;;;4397873;32;419787;-86
2023/05/11 12:14:02;;;;;;;14.67;9.47;;;;;;;;;;4407906;32;318963;-83
2023/05/11 12:16:29;;;;;;;17.87;9.53;;;;;;;;;;4396781;32;317932;-86
2023/05/11 12:18:57;;;;;;;20.77;11.00;;;;;;;;;;4385850;32;318094;-84
2023/05/11 12:21:26;;;;;;;16.07;9.97;;;;;;;;;;4374904;32;319396;-84
2023/05/11 12:23:54;;;;;;;12.70;9.75;;;;;;;;;;4388958;32;317875;-82
2023/05/11 12:26:21;;;;;;;14.07;9.90;;;;;;;;;;4387741;32;318017;-83
2023/05/11 12:28:50;;;;;;;19.23;9.60;;;;;;;;;;4397946;32;318311;-82
2023/05/11 12:31:17;;;;;;;16.73;10.23;;;;;;;;;;4375353;32;317735;-83
2023/05/11 12:33:48;;;;;;;14.70;10.93;;;;;;;;;;4401285;32;318584;-82
2023/05/11 12:36:19;;;;;;;17.80;11.88;;;;;;;;;;4401765;32;318604;-82
2023/05/11 12:38:46;;;;;;;22.00;10.83;;;;;;;;;;4409556;32;319239;-82
2023/05/11 12:41:21;;;;;;;16.83;11.65;;;;;;;;;;4386543;32;318775;-82
2023/05/11 12:43:49;;;;;;;14.98;10.68;;;;;;;;;;4382703;32;319301;-82
2023/05/11 12:46:18;;;;;;;14.63;11.23;;;;;;;;;;4387350;32;319124;-83
2023/05/11 12:48:46;;;;;;;17.90;10.47;;;;;;;;;;4397370;32;318534;-82
2023/05/11 12:51:13;;;;;;;14.80;11.67;;;;;;;;;;4386091;32;357950;-83
2023/05/11 12:53:40;;;;;;;22.83;12.32;;;;;;;;;;4397095;32;318676;-83
2023/05/11 12:56:07;;;;;;;14.63;11.35;;;;;;;;;;4387573;32;318781;-83
2023/05/11 12:58:39;;;;;;;11.63;10.52;;;;;;;;;;4397028;32;318879;-83
2023/05/11 13:01:08;;;;;;;12.90;10.55;;;;;;;;;;4383718;32;319511;-82
2023/05/11 13:03:36;;;;;;;16.80;11.10;;;;;;;;;;4376808;32;418945;-83
2023/05/11 13:06:07;;;;;;;18.97;10.87;;;;;;;;;;4397492;32;319430;-86
2023/05/11 13:08:35;;;;;;;13.80;10.38;;;;;;;;;;4375789;32;418617;-83
2023/05/11 13:11:17;;;;;;;14.47;10.90;;;;;;;;;;4382336;32;318849;-86
2023/05/11 13:13:43;;;;;;;21.30;11.63;;;;;;;;;;4369323;32;418658;-85
2023/05/11 13:16:12;;;;;;;18.83;10.53;;;;;;;;;;4372168;32;319349;-84
2023/05/11 13:18:38;;;;;;;14.25;11.50;;;;;;;;;;4385407;32;319273;-85
2023/05/11 13:21:08;;;;;;;15.48;11.00;;;;;;;;;;4381754;32;319643;-83
2023/05/11 13:23:35;;;;;;;25.50;12.13;;;;;;;;;;4367948;32;418659;-83
2023/05/11 13:26:02;;;;;;;19.08;9.98;;;;;;;;;;4382140;32;319073;-83
2023/05/11 13:28:29;;;;;;;24.27;12.18;;;;;;;;;;4396739;32;317495;-85
2023/05/11 13:31:00;;;;;;;15.80;11.73;;;;;;;;;;4387005;32;319101;-84
2023/05/11 13:33:28;;;;;;;15.77;11.85;;;;;;;;;;4384222;32;319467;-83
2023/05/11 13:35:55;;;;;;;16.37;11.30;;;;;;;;;;4367347;32;319403;-84
2023/05/11 13:38:22;;;;;;;18.08;11.12;;;;;;;;;;4376226;32;318739;-84
2023/05/11 13:40:49;;;;;;;27.30;13.30;;;;;;;;;;4363135;32;319402;-83
2023/05/11 13:43:16;;;;;;;20.03;11.33;;;;;;;;;;4380520;32;318081;-82
2023/05/11 13:45:43;;;;;;;27.33;13.23;;;;;;;;;;4368652;32;318648;-82
2023/05/11 13:48:09;;;;;;;18.67;11.80;;;;;;;;;;4381441;32;318268;-82
2023/05/11 13:50:39;;;;;;;23.87;12.75;;;;;;;;;;4381758;32;319034;-84
2023/05/11 13:53:06;;;;;;;28.23;11.93;;;;;;;;;;4374918;32;319233;-84
2023/05/11 13:55:32;;;;;;;22.95;12.13;;;;;;;;;;4382323;32;319276;-83
2023/05/11 13:58:00;;;;;;;22.53;11.73;;;;;;;;;;4370289;32;318712;-82
2023/05/11 14:00:27;;;;;;;17.30;10.97;;;;;;;;;;4364163;32;318610;-81
2023/05/11 14:02:54;;;;;;;15.90;10.40;;;;;;;;;;4363867;32;317800;-82
2023/05/11 14:05:21;;;;;;;24.80;12.57;;;;;;;;;;4388577;32;318765;-82
2023/05/11 14:07:49;;;;;;;17.53;10.80;;;;;;;;;;4389051;32;340428;-83
2023/05/11 14:10:16;;;;;;;19.90;12.13;;;;;;;;;;4397817;32;319208;-84
2023/05/11 14:12:43;;;;;;;13.85;10.15;;;;;;;;;;4373364;32;319342;-83
2023/05/11 14:15:11;;;;;;;16.40;11.02;;;;;;;;;;4398710;32;319126;-79
2023/05/11 14:17:38;;;;;;;15.97;10.87;;;;;;;;;;4387841;32;318697;-84
2023/05/11 14:20:06;;;;;;;14.55;10.85;;;;;;;;;;4372917;32;318563;-82
2023/05/11 14:22:33;;;;;;;17.17;10.48;;;;;;;;;;4363352;32;318531;-82
2023/05/11 14:25:01;;;;;;;20.80;11.50;;;;;;;;;;4366314;32;319132;-78